createdAt,value
2022-11-26T00:45:28.025Z,101988.44
2022-11-26T00:47:57.375Z,101992.88
2022-11-26T00:50:25.782Z,101997.97
2022-11-26T00:52:54.013Z,101994.88
2022-11-26T00:55:25.201Z,101999.66
2022-11-26T00:57:52.807Z,102004.44
2022-11-26T01:45:46.096Z,102038.34
2022-11-26T01:48:21.130Z,102043.94
2022-11-26T01:50:52.501Z,102042.78
2022-11-26T01:53:22.657Z,102047.56
2022-11-26T01:55:51.222Z,102054.00
2022-11-26T01:58:19.406Z,102048.38
2022-11-26T02:47:41.103Z,102103.59
2022-11-26T02:50:09.449Z,102096.34
2022-11-26T02:52:37.115Z,102086.78
2022-11-26T02:55:04.970Z,102084.31
2022-11-26T02:57:33.078Z,102091.56
2022-11-26T03:00:00.914Z,102097.16
2022-11-26T03:46:27.698Z,102135.56
2022-11-26T03:48:56.383Z,102145.94
2022-11-26T03:51:24.086Z,102146.75
2022-11-26T03:53:51.749Z,102150.38
2022-11-26T03:56:19.267Z,102152.38
2022-11-26T03:58:47.212Z,102160.78
2022-11-26T04:45:16.076Z,102216.44
2022-11-26T04:47:43.673Z,102224.03
2022-11-26T04:50:11.958Z,102228.50
2022-11-26T04:52:39.553Z,102234.91
2022-11-26T04:55:07.228Z,102224.53
2022-11-26T04:57:34.835Z,102230.97
2022-11-26T05:00:02.538Z,102237.38
2022-11-26T05:31:49.986Z,102289.09
2022-11-26T05:34:17.975Z,102291.91
2022-11-26T05:36:45.751Z,102292.72
2022-11-26T05:39:13.940Z,102287.13
2022-11-26T05:41:41.723Z,102279.56
2022-11-26T05:44:09.547Z,102293.59
2022-11-26T05:46:37.269Z,102293.59
2022-11-26T05:49:06.458Z,102293.59
2022-11-26T05:51:34.358Z,102299.19
2022-11-26T05:54:02.199Z,102296.88
2022-11-26T05:56:30.207Z,102305.28
2022-11-26T05:58:58.039Z,102306.44
2022-11-26T06:01:25.681Z,102312.84
2022-11-26T06:03:53.583Z,102313.69
2022-11-26T06:06:22.841Z,102314.50
2022-11-26T06:08:50.719Z,102318.47
2022-11-26T06:11:18.577Z,102319.28
2022-11-26T06:13:46.605Z,102332.13
2022-11-26T06:16:14.432Z,102335.25
2022-11-26T06:18:42.287Z,102333.28
2022-11-26T06:21:09.928Z,102336.91
2022-11-26T06:23:38.948Z,102337.72
2022-11-26T06:26:08.341Z,102348.13
2022-11-26T06:28:35.916Z,102352.91
2022-11-26T06:31:03.561Z,102351.72
2022-11-26T06:33:31.374Z,102360.13
2022-11-26T06:35:59.782Z,102360.13
2022-11-26T06:38:27.444Z,102362.94
2022-11-26T06:41:00.636Z,102373.00
2022-11-26T06:43:28.267Z,102373.00
2022-11-26T06:45:56.009Z,102371.00
2022-11-26T06:48:24.250Z,102384.19
2022-11-26T06:50:51.881Z,102393.41
2022-11-26T06:53:19.682Z,102394.09
2022-11-26T06:55:47.520Z,102396.56
2022-11-26T06:58:16.596Z,102401.00
2022-11-26T07:00:44.180Z,102400.19
2022-11-26T07:03:11.734Z,102407.75
2022-11-26T07:05:39.305Z,102404.97
2022-11-26T07:08:06.840Z,102413.84
2022-11-26T07:10:34.433Z,102412.22
2022-11-26T07:13:02.539Z,102413.84
2022-11-26T07:15:31.671Z,102415.84
2022-11-26T07:17:59.254Z,102417.81
2022-11-26T07:20:26.890Z,102426.22
2022-11-26T07:22:54.430Z,102423.41
2022-11-26T07:25:21.997Z,102423.41
2022-11-26T07:27:49.566Z,102431.81
2022-11-26T07:30:17.763Z,102427.03
2022-11-26T07:32:46.880Z,102429.53
2022-11-26T07:35:17.755Z,102435.13
2022-11-26T07:37:45.594Z,102439.59
2022-11-26T07:40:13.703Z,102433.97
2022-11-26T07:42:41.255Z,102433.16
2022-11-26T07:45:09.176Z,102443.53
2022-11-26T07:47:36.921Z,102443.53
2022-11-26T07:50:06.568Z,102453.59
2022-11-26T07:52:34.305Z,102445.19
2022-11-26T07:55:02.074Z,102455.56
2022-11-26T07:57:29.661Z,102462.00
2022-11-26T07:59:57.291Z,102460.34
2022-11-26T08:02:24.901Z,102456.41
2022-11-26T08:04:52.562Z,102463.16
2022-11-26T08:07:27.554Z,102460.34
2022-11-26T08:09:56.852Z,102465.13
2022-11-26T08:12:24.534Z,102470.75
2022-11-26T08:14:52.240Z,102469.88
2022-11-26T08:17:19.852Z,102476.34
2022-11-26T08:19:47.539Z,102477.16
2022-11-26T08:22:15.147Z,102474.38
2022-11-26T08:24:44.097Z,102483.59
2022-11-26T08:27:11.994Z,102482.78
2022-11-26T08:29:39.652Z,102488.38
2022-11-26T08:32:07.290Z,102485.56
2022-11-26T08:34:34.967Z,102490.03
2022-11-26T08:37:02.575Z,102500.06
2022-11-26T08:39:30.337Z,102495.97
2022-11-26T08:41:59.296Z,102506.00
2022-11-26T08:44:26.869Z,102497.91
2022-11-26T08:46:54.391Z,102509.09
2022-11-26T08:49:22.168Z,102510.78
2022-11-26T08:51:49.782Z,102512.75
2022-11-26T08:54:17.608Z,102510.78
2022-11-26T08:56:45.262Z,102515.22
2022-11-26T08:59:14.234Z,102516.38
2022-11-26T09:01:41.964Z,102525.63
2022-11-26T09:04:09.593Z,102529.25
2022-11-26T09:06:37.800Z,102522.81
2022-11-26T09:09:15.031Z,102530.06
2022-11-26T09:11:43.310Z,102530.88
2022-11-26T09:14:10.954Z,102534.84
2022-11-26T09:16:40.091Z,102530.88
2022-11-26T09:19:07.775Z,102530.88
2022-11-26T09:21:35.581Z,102541.28
2022-11-26T09:24:03.164Z,102542.09
2022-11-26T09:26:31.098Z,102545.72
2022-11-26T09:28:58.930Z,102550.16
2022-11-26T09:31:26.527Z,102562.19
2022-11-26T09:33:57.046Z,102562.19
2022-11-26T09:36:24.637Z,102557.44
2022-11-26T09:38:54.116Z,102555.78
2022-11-26T09:41:25.901Z,102566.97
2022-11-26T09:43:58.665Z,102566.97
2022-11-26T09:46:27.514Z,102571.75
2022-11-26T09:48:55.120Z,102577.06
2022-11-26T09:51:24.024Z,102581.81
2022-11-26T09:53:51.715Z,102577.38
2022-11-26T09:56:20.214Z,102572.28
2022-11-26T09:58:49.286Z,102579.88
2022-11-26T10:01:18.183Z,102582.66
2022-11-26T10:03:45.822Z,102586.28
2022-11-26T10:06:17.260Z,102580.69
2022-11-26T10:09:02.559Z,102591.06
2022-11-26T10:11:33.327Z,102589.09
2022-11-26T10:14:04.435Z,102587.94
2022-11-26T10:16:34.496Z,102590.75
2022-11-26T10:19:03.343Z,102586.28
2022-11-26T10:21:57.266Z,102591.91
2022-11-26T10:24:20.621Z,102591.91
2022-11-26T10:26:49.627Z,102586.78
2022-11-26T10:29:19.658Z,102596.00
2022-11-26T10:31:47.768Z,102596.84
2022-11-26T10:34:15.636Z,102594.03
2022-11-26T10:36:43.389Z,102602.44
2022-11-26T10:39:13.422Z,102609.69
2022-11-26T10:41:40.948Z,102598.47
2022-11-26T10:44:27.112Z,102609.69
2022-11-26T10:46:56.132Z,102608.03
2022-11-26T10:49:24.578Z,102614.47
2022-11-26T10:51:52.597Z,102613.66
2022-11-26T10:54:27.348Z,102613.66
2022-11-26T10:56:55.325Z,102610.84
2022-11-26T10:59:23.936Z,102614.31
2022-11-26T11:01:54.392Z,102619.25
2022-11-26T11:04:27.470Z,102621.22
2022-11-26T11:06:55.133Z,102613.66
2022-11-26T11:09:24.115Z,102618.44
2022-11-26T11:11:57.547Z,102618.44
2022-11-26T11:14:28.763Z,102610.84
2022-11-26T11:16:56.417Z,102620.91
2022-11-26T11:19:24.710Z,102620.06
2022-11-26T11:21:53.615Z,102619.25
2022-11-26T11:24:22.555Z,102623.22
2022-11-26T11:26:53.393Z,102621.56
2022-11-26T11:29:24.442Z,102623.22
2022-11-26T11:31:52.080Z,102624.38
2022-11-26T11:34:20.999Z,102632.78
2022-11-26T11:37:00.173Z,102627.16
2022-11-26T11:39:28.508Z,102628.81
2022-11-26T11:41:56.070Z,102633.59
2022-11-26T11:44:24.879Z,102627.16
2022-11-26T11:47:13.514Z,102627.16
2022-11-26T11:49:59.035Z,102628.63
2022-11-26T11:52:30.650Z,102636.72
2022-11-26T11:55:00.139Z,102636.72
2022-11-26T11:57:33.220Z,102639.53
2022-11-26T12:00:13.285Z,102641.19
2022-11-26T12:02:55.902Z,102636.72
2022-11-26T12:05:44.239Z,102645.13
2022-11-26T12:08:17.078Z,102639.19
2022-11-26T12:10:45.594Z,102640.03
2022-11-26T12:13:14.087Z,102640.84
2022-11-26T12:15:43.010Z,102640.34
2022-11-26T12:18:13.282Z,102643.66
2022-11-26T12:20:41.469Z,102650.06
2022-11-26T12:23:18.816Z,102644.47
2022-11-26T12:25:49.700Z,102642.50
2022-11-26T12:28:17.550Z,102641.34
2022-11-26T12:30:46.405Z,102643.31
2022-11-26T12:33:14.784Z,102645.00
2022-11-26T12:35:43.414Z,102640.50
2022-11-26T12:38:12.478Z,102651.72
2022-11-26T12:40:41.968Z,102650.91
2022-11-26T12:43:13.284Z,102654.53
2022-11-26T12:45:43.397Z,102651.72
2022-11-26T12:48:14.902Z,102649.25
2022-11-26T12:50:43.374Z,102652.88
2022-11-26T12:53:13.599Z,102652.06
2022-11-26T12:55:42.976Z,102653.69
2022-11-26T12:58:11.535Z,102652.88
2022-11-26T13:00:39.265Z,102652.88
2022-11-26T13:03:07.089Z,102657.66
2022-11-26T13:05:36.144Z,102650.06
2022-11-26T13:08:13.323Z,102652.88
2022-11-26T13:10:46.011Z,102659.31
2022-11-26T13:13:16.986Z,102655.69
2022-11-26T13:15:45.096Z,102656.50
2022-11-26T13:18:13.778Z,102653.53
2022-11-26T13:20:49.078Z,102659.31
2022-11-26T13:23:24.000Z,102658.47
2022-11-26T13:26:02.049Z,102656.84
2022-11-26T13:28:34.270Z,102666.41
2022-11-26T13:31:06.291Z,102666.41
2022-11-26T13:33:51.806Z,102664.75
2022-11-26T13:36:21.766Z,102675.97
2022-11-26T13:39:03.247Z,102668.69
2022-11-26T13:41:38.188Z,102660.28
2022-11-26T13:44:23.466Z,102668.69
2022-11-26T13:46:51.565Z,102660.28
2022-11-26T13:49:20.323Z,102663.94
2022-11-26T13:51:48.404Z,102660.78
2022-11-26T13:54:16.895Z,102660.78
2022-11-26T13:56:46.167Z,102662.44
2022-11-26T13:59:15.402Z,102662.44
2022-11-26T14:01:43.025Z,102668.03
2022-11-26T14:04:10.945Z,102664.09
2022-11-26T14:06:38.494Z,102672.16
2022-11-26T14:09:06.699Z,102672.50
2022-11-26T14:11:57.984Z,102678.94
2022-11-26T14:14:32.061Z,102675.28
2022-11-26T14:17:12.657Z,102678.09
2022-11-26T14:19:58.669Z,102668.88
2022-11-26T14:22:29.905Z,102676.13
2022-11-26T14:24:58.912Z,102682.88
2022-11-26T14:27:29.215Z,102680.06
2022-11-26T14:29:59.055Z,102684.84
2022-11-26T14:32:27.199Z,102683.22
2022-11-26T14:34:55.053Z,102683.22
2022-11-26T14:37:22.918Z,102684.03
2022-11-26T14:39:58.169Z,102680.91
2022-11-26T14:42:25.738Z,102684.84
2022-11-26T14:45:02.664Z,102686.00
2022-11-26T14:47:30.373Z,102694.41
2022-11-26T14:49:58.658Z,102681.56
2022-11-26T14:52:27.506Z,102685.50
2022-11-26T14:54:56.034Z,102689.97
2022-11-26T14:57:24.470Z,102685.50
2022-11-26T14:59:58.783Z,102687.47
2022-11-26T15:02:28.593Z,102691.09
2022-11-26T15:05:00.018Z,102689.44
2022-11-26T15:07:27.671Z,102696.69
2022-11-26T15:10:02.059Z,102693.91
2022-11-26T15:12:29.634Z,102690.28
2022-11-26T15:14:58.907Z,102697.56
2022-11-26T15:17:28.809Z,102709.59
2022-11-26T15:19:56.427Z,102703.97
2022-11-26T15:22:33.959Z,102703.97
2022-11-26T15:25:01.584Z,102700.34
2022-11-26T15:27:29.850Z,102702.31
2022-11-26T15:29:57.400Z,102703.16
2022-11-26T15:32:25.426Z,102697.56
2022-11-26T15:34:54.514Z,102702.31
2022-11-26T15:37:22.291Z,102702.31
2022-11-26T15:39:49.878Z,102702.31
2022-11-26T15:42:25.558Z,102699.50
2022-11-26T15:44:53.189Z,102698.38
2022-11-26T15:47:21.440Z,102702.31
2022-11-26T15:49:49.708Z,102691.09
2022-11-26T15:52:20.387Z,102695.88
2022-11-26T15:55:11.454Z,102691.94
2022-11-26T15:57:38.090Z,102702.31
2022-11-26T16:00:07.109Z,102696.69
2022-11-26T16:02:34.820Z,102695.88
2022-11-26T16:05:02.742Z,102699.50
2022-11-26T16:07:31.851Z,102689.44
2022-11-26T16:10:12.567Z,102683.84
2022-11-26T16:12:44.568Z,102679.06
2022-11-26T16:15:22.064Z,102689.44
2022-11-26T16:17:49.826Z,102689.44
2022-11-26T16:20:17.944Z,102690.28
2022-11-26T16:22:47.130Z,102695.88
2022-11-26T16:25:19.863Z,102700.66
2022-11-26T16:28:02.147Z,102707.09
2022-11-26T16:30:29.956Z,102711.84
2022-11-26T16:32:57.563Z,102711.84
2022-11-26T16:35:44.732Z,102717.47
2022-11-26T16:38:20.565Z,102724.72
2022-11-26T16:40:48.191Z,102732.00
2022-11-26T16:43:15.773Z,102727.53
2022-11-26T16:45:43.627Z,102731.19
2022-11-26T16:48:24.463Z,102733.13
2022-11-26T16:50:52.850Z,102737.59
2022-11-26T16:53:22.092Z,102737.59
2022-11-26T16:55:50.650Z,102737.59
2022-11-26T16:58:22.574Z,102734.81
2022-11-26T17:00:51.114Z,102732.00
2022-11-26T17:03:19.032Z,102733.97
2022-11-26T17:05:46.749Z,102732.00
2022-11-26T17:08:14.349Z,102733.97
2022-11-26T17:10:43.514Z,102739.88
2022-11-26T17:13:11.092Z,102735.09
2022-11-26T17:15:39.230Z,102752.75
2022-11-26T17:18:12.309Z,102748.00
2022-11-26T17:20:39.852Z,102751.63
2022-11-26T17:23:07.707Z,102748.81
2022-11-26T17:25:35.331Z,102752.75
2022-11-26T17:28:04.411Z,102749.94
2022-11-26T17:30:32.107Z,102743.50
2022-11-26T17:32:59.726Z,102752.75
2022-11-26T17:35:27.357Z,102751.91
2022-11-26T17:37:54.868Z,102749.94
2022-11-26T17:40:23.429Z,102748.00
2022-11-26T17:42:51.249Z,102746.31
2022-11-26T17:45:20.267Z,102741.53
2022-11-26T17:47:47.888Z,102752.75
2022-11-26T17:50:16.494Z,102748.00
2022-11-26T17:52:44.097Z,102748.00
2022-11-26T17:55:12.377Z,102748.00
2022-11-26T17:57:39.965Z,102739.25
2022-11-26T18:00:08.655Z,102743.22
2022-11-26T18:02:37.749Z,102744.03
2022-11-26T18:05:05.692Z,102739.25
2022-11-26T18:07:33.380Z,102750.47
2022-11-26T18:10:01.189Z,102746.00
2022-11-26T18:12:28.782Z,102744.84
2022-11-26T18:14:56.505Z,102739.25
2022-11-26T18:17:24.350Z,102750.47
2022-11-26T18:19:53.823Z,102750.47
2022-11-26T18:22:22.619Z,102754.91
2022-11-26T18:24:56.800Z,102759.38
2022-11-26T18:27:25.711Z,102755.75
2022-11-26T18:29:53.486Z,102746.50
2022-11-26T18:32:21.106Z,102748.47
2022-11-26T18:34:49.577Z,102740.09
2022-11-26T18:37:18.627Z,102746.50
2022-11-26T18:39:46.412Z,102742.56
2022-11-26T18:45:01.531Z,102744.53
2022-11-26T18:47:29.243Z,102735.31
2022-11-26T18:49:56.898Z,102742.06
2022-11-26T18:52:25.863Z,102728.88
2022-11-26T18:54:53.742Z,102743.69
2022-11-26T18:57:21.423Z,102734.47
2022-11-26T18:59:50.631Z,102740.91
2022-11-26T19:02:18.587Z,102738.09
2022-11-26T19:04:46.280Z,102740.91
2022-11-26T19:07:14.174Z,102742.06
2022-11-26T19:09:43.559Z,102746.50
2022-11-26T19:12:11.189Z,102729.69
2022-11-26T19:14:39.433Z,102734.47
2022-11-26T19:17:07.305Z,102735.31
2022-11-26T19:19:34.971Z,102728.03
2022-11-26T19:22:02.530Z,102731.66
2022-11-26T19:24:30.145Z,102722.44
2022-11-26T19:26:59.145Z,102724.09
2022-11-26T19:29:26.715Z,102711.22
2022-11-26T19:31:54.570Z,102721.63
2022-11-26T19:34:22.360Z,102724.09
2022-11-26T19:36:50.242Z,102721.28
2022-11-26T19:39:18.261Z,102729.69
2022-11-26T19:41:45.939Z,102722.44
2022-11-26T19:44:14.877Z,102730.53
2022-11-26T19:46:42.418Z,102727.72
2022-11-26T19:49:11.503Z,102724.09
2022-11-26T19:51:40.050Z,102724.09
2022-11-26T19:54:08.734Z,102723.25
2022-11-26T19:56:36.703Z,102724.09
2022-11-26T19:59:04.667Z,102728.03
2022-11-26T20:01:34.791Z,102724.09
2022-11-26T20:04:03.001Z,102731.34
2022-11-26T20:06:31.676Z,102725.25
2022-11-26T20:08:59.765Z,102729.69
2022-11-26T20:11:27.729Z,102724.09
2022-11-26T20:13:56.419Z,102725.75
2022-11-26T20:16:25.400Z,102726.06
2022-11-26T20:18:55.225Z,102736.94
2022-11-26T20:21:23.596Z,102731.34
2022-11-26T20:23:52.115Z,102736.13
2022-11-26T20:26:22.042Z,102731.34
2022-11-26T20:28:50.079Z,102724.91
2022-11-26T20:31:23.271Z,102731.34
2022-11-26T20:33:53.167Z,102729.69
2022-11-26T20:36:23.449Z,102732.50
2022-11-26T20:38:55.501Z,102734.16
2022-11-26T20:41:23.583Z,102720.13
2022-11-26T20:43:56.784Z,102730.53
2022-11-26T20:46:27.045Z,102724.09
2022-11-26T20:48:56.365Z,102729.69
2022-11-26T20:51:25.762Z,102729.69
2022-11-26T20:53:54.259Z,102742.56
2022-11-26T20:56:22.645Z,102736.94
2022-11-26T20:58:50.496Z,102748.16
2022-11-26T21:01:19.024Z,102743.69
2022-11-26T21:03:46.910Z,102742.56
2022-11-26T21:06:14.864Z,102736.94
2022-11-26T21:08:44.274Z,102735.31
2022-11-26T21:11:12.232Z,102744.19
2022-11-26T21:13:40.679Z,102742.56
2022-11-26T21:16:09.607Z,102736.94
2022-11-26T21:18:37.688Z,102736.94
2022-11-26T21:21:08.542Z,102731.34
2022-11-26T21:23:37.938Z,102736.13
2022-11-26T21:26:08.547Z,102738.59
2022-11-26T21:28:36.631Z,102730.53
2022-11-26T21:31:07.983Z,102737.78
2022-11-26T21:33:35.912Z,102729.69
2022-11-26T21:36:07.598Z,102742.56
2022-11-26T21:38:35.816Z,102751.78
2022-11-26T21:41:08.807Z,102735.31
2022-11-26T21:43:36.783Z,102736.13
2022-11-26T21:46:04.783Z,102736.13
2022-11-26T21:48:32.828Z,102731.34
2022-11-26T21:51:00.783Z,102731.34
2022-11-26T21:53:28.630Z,102737.78
2022-11-26T21:55:56.470Z,102736.94
2022-11-26T21:58:26.379Z,102736.13
2022-11-26T22:00:54.245Z,102736.94
2022-11-26T22:03:22.168Z,102742.56
2022-11-26T22:06:13.359Z,102734.81
2022-11-26T22:08:41.342Z,102736.13
2022-11-26T22:11:09.503Z,102731.34
2022-11-26T22:13:39.246Z,102731.34
2022-11-26T22:16:07.324Z,102732.16
2022-11-26T22:18:35.977Z,102743.38
2022-11-26T22:21:03.546Z,102731.34
2022-11-26T22:23:31.082Z,102734.16
2022-11-26T22:25:58.665Z,102740.91
2022-11-26T22:28:29.972Z,102736.13
2022-11-26T22:30:59.317Z,102735.31
2022-11-26T22:33:27.183Z,102734.16
2022-11-26T22:35:55.616Z,102740.91
2022-11-26T22:38:23.260Z,102736.13
2022-11-26T22:40:50.803Z,102735.31
2022-11-26T22:43:18.375Z,102735.31
2022-11-26T22:45:46.010Z,102740.91
2022-11-26T22:48:14.998Z,102745.34
2022-11-26T22:50:42.979Z,102737.28
2022-11-26T22:53:10.996Z,102740.91
2022-11-26T22:55:38.569Z,102735.31
2022-11-26T22:58:06.142Z,102746.50
2022-11-26T23:00:46.980Z,102736.94
2022-11-26T23:03:16.118Z,102738.09
2022-11-26T23:05:43.849Z,102732.50
2022-11-26T23:08:12.007Z,102738.94
2022-11-26T23:10:39.580Z,102733.66
2022-11-26T23:13:07.220Z,102731.66
2022-11-26T23:47:39.904Z,102718.81
2022-11-26T23:50:08.828Z,102712.88
2022-11-26T23:52:36.913Z,102724.09
2022-11-26T23:55:05.022Z,102728.03
2022-11-26T23:57:32.763Z,102726.41
